sensor_id;sensor_type;location;lat;lon;timestamp;P1;durP1;ratioP1;P2;durP2;ratioP2
7719;SDS011;3902;49.474;8.616;2024-02-26T00:00:32;1.40;;;1.30;;
7719;SDS011;3902;49.474;8.616;2024-02-26T00:02:59;1.53;;;1.37;;
7719;SDS011;3902;49.474;8.616;2024-02-26T00:05:25;1.60;;;1.50;;
7719;SDS011;3902;49.474;8.616;2024-02-26T00:07:51;1.40;;;1.30;;
7719;SDS011;3902;49.474;8.616;2024-02-26T00:10:16;1.30;;;1.20;;
7719;SDS011;3902;49.474;8.616;2024-02-26T00:12:42;2.00;;;1.50;;
7719;SDS011;3902;49.474;8.616;2024-02-26T00:15:08;1.30;;;1.10;;
7719;SDS011;3902;49.474;8.616;2024-02-26T00:17:36;1.20;;;1.03;;
7719;SDS011;3902;49.474;8.616;2024-02-26T00:20:02;1.77;;;1.30;;
7719;SDS011;3902;49.474;8.616;2024-02-26T00:22:33;1.30;;;1.20;;
7719;SDS011;3902;49.474;8.616;2024-02-26T00:24:59;1.50;;;1.40;;
7719;SDS011;3902;49.474;8.616;2024-02-26T00:27:25;1.60;;;1.30;;
7719;SDS011;3902;49.474;8.616;2024-02-26T00:29:50;1.70;;;1.30;;
7719;SDS011;3902;49.474;8.616;2024-02-26T00:32:16;1.40;;;1.30;;
7719;SDS011;3902;49.474;8.616;2024-02-26T00:34:41;2.00;;;1.60;;
7719;SDS011;3902;49.474;8.616;2024-02-26T00:37:07;1.30;;;1.20;;
7719;SDS011;3902;49.474;8.616;2024-02-26T00:39:32;1.43;;;1.20;;
7719;SDS011;3902;49.474;8.616;2024-02-26T00:41:58;1.50;;;1.40;;
7719;SDS011;3902;49.474;8.616;2024-02-26T00:44:23;1.83;;;1.30;;
7719;SDS011;3902;49.474;8.616;2024-02-26T00:46:49;2.13;;;1.50;;
7719;SDS011;3902;49.474;8.616;2024-02-26T00:49:14;1.50;;;1.40;;
7719;SDS011;3902;49.474;8.616;2024-02-26T00:51:40;1.60;;;1.50;;
7719;SDS011;3902;49.474;8.616;2024-02-26T00:54:05;1.80;;;1.60;;
7719;SDS011;3902;49.474;8.616;2024-02-26T00:56:31;1.60;;;1.50;;
7719;SDS011;3902;49.474;8.616;2024-02-26T00:58:56;1.97;;;1.60;;
7719;SDS011;3902;49.474;8.616;2024-02-26T01:01:22;1.40;;;1.20;;
7719;SDS011;3902;49.474;8.616;2024-02-26T01:03:47;3.47;;;1.50;;
7719;SDS011;3902;49.474;8.616;2024-02-26T01:06:13;1.97;;;1.70;;
7719;SDS011;3902;49.474;8.616;2024-02-26T01:08:38;1.50;;;1.30;;
7719;SDS011;3902;49.474;8.616;2024-02-26T01:11:04;1.93;;;1.40;;
7719;SDS011;3902;49.474;8.616;2024-02-26T01:13:29;1.80;;;1.50;;
7719;SDS011;3902;49.474;8.616;2024-02-26T01:15:55;1.30;;;1.20;;
7719;SDS011;3902;49.474;8.616;2024-02-26T01:18:20;1.87;;;1.43;;
7719;SDS011;3902;49.474;8.616;2024-02-26T01:20:47;1.47;;;1.37;;
7719;SDS011;3902;49.474;8.616;2024-02-26T01:23:12;1.40;;;1.27;;
7719;SDS011;3902;49.474;8.616;2024-02-26T01:25:38;1.50;;;1.40;;
7719;SDS011;3902;49.474;8.616;2024-02-26T01:28:04;1.60;;;1.20;;
7719;SDS011;3902;49.474;8.616;2024-02-26T01:30:30;1.50;;;1.40;;
7719;SDS011;3902;49.474;8.616;2024-02-26T01:32:56;1.60;;;1.20;;
7719;SDS011;3902;49.474;8.616;2024-02-26T01:35:21;1.93;;;1.70;;
7719;SDS011;3902;49.474;8.616;2024-02-26T01:37:47;1.30;;;1.20;;
7719;SDS011;3902;49.474;8.616;2024-02-26T01:40:12;1.40;;;1.30;;
7719;SDS011;3902;49.474;8.616;2024-02-26T01:42:42;1.40;;;1.20;;
7719;SDS011;3902;49.474;8.616;2024-02-26T01:45:09;1.40;;;1.30;;
7719;SDS011;3902;49.474;8.616;2024-02-26T01:47:40;1.50;;;1.40;;
7719;SDS011;3902;49.474;8.616;2024-02-26T01:50:06;2.03;;;1.30;;
7719;SDS011;3902;49.474;8.616;2024-02-26T01:52:33;1.40;;;1.30;;
7719;SDS011;3902;49.474;8.616;2024-02-26T01:54:59;1.73;;;1.50;;
7719;SDS011;3902;49.474;8.616;2024-02-26T01:57:26;1.80;;;1.40;;
7719;SDS011;3902;49.474;8.616;2024-02-26T01:59:52;2.50;;;1.80;;
7719;SDS011;3902;49.474;8.616;2024-02-26T02:02:18;1.60;;;1.50;;
7719;SDS011;3902;49.474;8.616;2024-02-26T02:04:44;2.40;;;1.50;;
7719;SDS011;3902;49.474;8.616;2024-02-26T02:07:09;1.73;;;1.63;;
7719;SDS011;3902;49.474;8.616;2024-02-26T02:09:35;2.10;;;1.80;;
7719;SDS011;3902;49.474;8.616;2024-02-26T02:12:01;2.07;;;1.70;;
7719;SDS011;3902;49.474;8.616;2024-02-26T02:14:27;1.90;;;1.70;;
7719;SDS011;3902;49.474;8.616;2024-02-26T02:16:53;1.67;;;1.57;;
7719;SDS011;3902;49.474;8.616;2024-02-26T02:19:18;3.03;;;1.60;;
7719;SDS011;3902;49.474;8.616;2024-02-26T02:21:44;1.70;;;1.60;;
7719;SDS011;3902;49.474;8.616;2024-02-26T02:24:09;2.10;;;1.60;;
7719;SDS011;3902;49.474;8.616;2024-02-26T02:26:35;1.70;;;1.60;;
7719;SDS011;3902;49.474;8.616;2024-02-26T02:29:00;1.93;;;1.67;;
7719;SDS011;3902;49.474;8.616;2024-02-26T02:31:27;1.80;;;1.70;;
7719;SDS011;3902;49.474;8.616;2024-02-26T02:33:53;2.40;;;1.30;;
7719;SDS011;3902;49.474;8.616;2024-02-26T02:36:19;2.07;;;1.70;;
7719;SDS011;3902;49.474;8.616;2024-02-26T02:38:50;1.70;;;1.60;;
7719;SDS011;3902;49.474;8.616;2024-02-26T02:41:16;1.73;;;1.60;;
7719;SDS011;3902;49.474;8.616;2024-02-26T02:43:42;2.07;;;1.60;;
7719;SDS011;3902;49.474;8.616;2024-02-26T02:46:08;3.13;;;1.70;;
7719;SDS011;3902;49.474;8.616;2024-02-26T02:48:33;2.80;;;1.83;;
7719;SDS011;3902;49.474;8.616;2024-02-26T02:50:59;1.90;;;1.70;;
7719;SDS011;3902;49.474;8.616;2024-02-26T02:53:24;1.70;;;1.60;;
7719;SDS011;3902;49.474;8.616;2024-02-26T02:55:50;3.57;;;2.10;;
7719;SDS011;3902;49.474;8.616;2024-02-26T02:58:15;1.90;;;1.70;;
7719;SDS011;3902;49.474;8.616;2024-02-26T03:00:41;1.80;;;1.70;;
7719;SDS011;3902;49.474;8.616;2024-02-26T03:03:06;1.90;;;1.70;;
7719;SDS011;3902;49.474;8.616;2024-02-26T03:05:32;1.93;;;1.70;;
7719;SDS011;3902;49.474;8.616;2024-02-26T03:07:57;2.07;;;1.50;;
7719;SDS011;3902;49.474;8.616;2024-02-26T03:10:23;1.70;;;1.60;;
7719;SDS011;3902;49.474;8.616;2024-02-26T03:12:49;1.93;;;1.83;;
7719;SDS011;3902;49.474;8.616;2024-02-26T03:15:15;2.20;;;1.87;;
7719;SDS011;3902;49.474;8.616;2024-02-26T03:17:41;3.00;;;1.80;;
7719;SDS011;3902;49.474;8.616;2024-02-26T03:20:07;2.00;;;1.60;;
7719;SDS011;3902;49.474;8.616;2024-02-26T03:22:34;1.90;;;1.73;;
7719;SDS011;3902;49.474;8.616;2024-02-26T03:25:00;1.63;;;1.40;;
7719;SDS011;3902;49.474;8.616;2024-02-26T03:27:25;1.70;;;1.60;;
7719;SDS011;3902;49.474;8.616;2024-02-26T03:29:51;2.10;;;1.70;;
7719;SDS011;3902;49.474;8.616;2024-02-26T03:32:17;1.70;;;1.60;;
7719;SDS011;3902;49.474;8.616;2024-02-26T03:34:43;1.73;;;1.33;;
7719;SDS011;3902;49.474;8.616;2024-02-26T03:37:08;1.83;;;1.60;;
7719;SDS011;3902;49.474;8.616;2024-02-26T03:39:35;1.50;;;1.40;;
7719;SDS011;3902;49.474;8.616;2024-02-26T03:42:01;2.10;;;1.70;;
7719;SDS011;3902;49.474;8.616;2024-02-26T03:44:27;1.70;;;1.60;;
7719;SDS011;3902;49.474;8.616;2024-02-26T03:46:52;1.60;;;1.50;;
7719;SDS011;3902;49.474;8.616;2024-02-26T03:49:18;1.50;;;1.30;;
7719;SDS011;3902;49.474;8.616;2024-02-26T03:51:44;3.20;;;1.50;;
7719;SDS011;3902;49.474;8.616;2024-02-26T03:54:09;1.70;;;1.60;;
7719;SDS011;3902;49.474;8.616;2024-02-26T03:56:35;1.40;;;1.30;;
7719;SDS011;3902;49.474;8.616;2024-02-26T03:59:00;1.50;;;1.30;;
7719;SDS011;3902;49.474;8.616;2024-02-26T04:01:27;2.40;;;1.40;;
7719;SDS011;3902;49.474;8.616;2024-02-26T04:03:53;1.93;;;1.50;;
7719;SDS011;3902;49.474;8.616;2024-02-26T04:06:18;1.23;;;1.13;;
7719;SDS011;3902;49.474;8.616;2024-02-26T04:08:46;1.63;;;1.20;;
7719;SDS011;3902;49.474;8.616;2024-02-26T04:11:12;1.40;;;1.30;;
7719;SDS011;3902;49.474;8.616;2024-02-26T04:13:38;1.80;;;1.50;;
7719;SDS011;3902;49.474;8.616;2024-02-26T04:16:04;1.53;;;1.30;;
7719;SDS011;3902;49.474;8.616;2024-02-26T04:18:31;1.30;;;1.20;;
7719;SDS011;3902;49.474;8.616;2024-02-26T04:20:57;1.30;;;1.20;;
7719;SDS011;3902;49.474;8.616;2024-02-26T04:23:22;1.10;;;1.00;;
7719;SDS011;3902;49.474;8.616;2024-02-26T04:25:48;1.47;;;1.37;;
7719;SDS011;3902;49.474;8.616;2024-02-26T04:28:13;1.43;;;1.33;;
7719;SDS011;3902;49.474;8.616;2024-02-26T04:30:39;1.40;;;1.30;;
7719;SDS011;3902;49.474;8.616;2024-02-26T04:33:05;1.53;;;1.20;;
7719;SDS011;3902;49.474;8.616;2024-02-26T04:35:30;1.20;;;1.10;;
7719;SDS011;3902;49.474;8.616;2024-02-26T04:37:56;2.60;;;1.23;;
7719;SDS011;3902;49.474;8.616;2024-02-26T04:40:21;1.97;;;1.20;;
7719;SDS011;3902;49.474;8.616;2024-02-26T04:42:47;1.30;;;1.00;;
7719;SDS011;3902;49.474;8.616;2024-02-26T04:45:12;1.40;;;1.03;;
7719;SDS011;3902;49.474;8.616;2024-02-26T04:47:38;1.20;;;0.97;;
7719;SDS011;3902;49.474;8.616;2024-02-26T04:50:04;1.10;;;1.00;;
7719;SDS011;3902;49.474;8.616;2024-02-26T04:52:30;1.10;;;1.00;;
7719;SDS011;3902;49.474;8.616;2024-02-26T04:54:55;1.17;;;0.97;;
7719;SDS011;3902;49.474;8.616;2024-02-26T04:57:21;1.10;;;1.00;;
7719;SDS011;3902;49.474;8.616;2024-02-26T04:59:47;1.20;;;1.10;;
7719;SDS011;3902;49.474;8.616;2024-02-26T05:02:12;1.23;;;0.97;;
7719;SDS011;3902;49.474;8.616;2024-02-26T05:04:38;0.90;;;0.90;;
7719;SDS011;3902;49.474;8.616;2024-02-26T05:07:04;1.10;;;1.00;;
7719;SDS011;3902;49.474;8.616;2024-02-26T05:09:29;0.80;;;0.80;;
7719;SDS011;3902;49.474;8.616;2024-02-26T05:11:55;0.90;;;0.90;;
7719;SDS011;3902;49.474;8.616;2024-02-26T05:14:20;1.10;;;1.00;;
7719;SDS011;3902;49.474;8.616;2024-02-26T05:16:46;0.80;;;0.80;;
7719;SDS011;3902;49.474;8.616;2024-02-26T05:19:12;1.33;;;0.80;;
7719;SDS011;3902;49.474;8.616;2024-02-26T05:21:38;0.80;;;0.80;;
7719;SDS011;3902;49.474;8.616;2024-02-26T05:24:04;1.03;;;0.93;;
7719;SDS011;3902;49.474;8.616;2024-02-26T05:26:30;1.00;;;0.90;;
7719;SDS011;3902;49.474;8.616;2024-02-26T05:28:55;1.10;;;1.00;;
7719;SDS011;3902;49.474;8.616;2024-02-26T05:31:25;1.30;;;0.80;;
7719;SDS011;3902;49.474;8.616;2024-02-26T05:33:50;0.80;;;0.80;;
7719;SDS011;3902;49.474;8.616;2024-02-26T05:36:19;1.40;;;0.93;;
7719;SDS011;3902;49.474;8.616;2024-02-26T05:38:47;0.90;;;0.90;;
7719;SDS011;3902;49.474;8.616;2024-02-26T05:41:12;1.13;;;1.03;;
7719;SDS011;3902;49.474;8.616;2024-02-26T05:43:39;0.80;;;0.80;;
7719;SDS011;3902;49.474;8.616;2024-02-26T05:46:04;2.03;;;1.17;;
7719;SDS011;3902;49.474;8.616;2024-02-26T05:48:30;0.80;;;0.80;;
7719;SDS011;3902;49.474;8.616;2024-02-26T05:50:57;1.07;;;0.97;;
7719;SDS011;3902;49.474;8.616;2024-02-26T05:53:22;0.77;;;0.73;;
7719;SDS011;3902;49.474;8.616;2024-02-26T05:55:48;1.20;;;0.90;;
7719;SDS011;3902;49.474;8.616;2024-02-26T05:58:13;1.00;;;0.90;;
7719;SDS011;3902;49.474;8.616;2024-02-26T06:00:39;0.93;;;0.80;;
7719;SDS011;3902;49.474;8.616;2024-02-26T06:03:04;1.47;;;1.20;;
7719;SDS011;3902;49.474;8.616;2024-02-26T06:05:30;0.77;;;0.77;;
7719;SDS011;3902;49.474;8.616;2024-02-26T06:07:55;1.87;;;0.97;;
7719;SDS011;3902;49.474;8.616;2024-02-26T06:10:21;1.10;;;0.97;;
7719;SDS011;3902;49.474;8.616;2024-02-26T06:12:47;2.13;;;0.90;;
7719;SDS011;3902;49.474;8.616;2024-02-26T06:15:13;0.90;;;0.90;;
7719;SDS011;3902;49.474;8.616;2024-02-26T06:17:38;1.40;;;1.00;;
7719;SDS011;3902;49.474;8.616;2024-02-26T06:20:04;1.17;;;1.00;;
7719;SDS011;3902;49.474;8.616;2024-02-26T06:22:31;0.90;;;0.90;;
7719;SDS011;3902;49.474;8.616;2024-02-26T06:24:57;1.00;;;0.90;;
7719;SDS011;3902;49.474;8.616;2024-02-26T06:27:23;1.10;;;0.97;;
7719;SDS011;3902;49.474;8.616;2024-02-26T06:29:49;1.00;;;0.90;;
7719;SDS011;3902;49.474;8.616;2024-02-26T06:32:14;1.00;;;0.90;;
7719;SDS011;3902;49.474;8.616;2024-02-26T06:34:40;1.07;;;0.90;;
7719;SDS011;3902;49.474;8.616;2024-02-26T06:37:06;1.10;;;1.00;;
7719;SDS011;3902;49.474;8.616;2024-02-26T06:39:34;1.47;;;0.90;;
7719;SDS011;3902;49.474;8.616;2024-02-26T06:42:00;3.20;;;1.27;;
7719;SDS011;3902;49.474;8.616;2024-02-26T06:44:26;1.10;;;1.00;;
7719;SDS011;3902;49.474;8.616;2024-02-26T06:46:57;1.00;;;0.90;;
7719;SDS011;3902;49.474;8.616;2024-02-26T06:49:24;1.00;;;0.90;;
7719;SDS011;3902;49.474;8.616;2024-02-26T06:51:50;1.33;;;1.03;;
7719;SDS011;3902;49.474;8.616;2024-02-26T06:54:15;0.80;;;0.80;;
7719;SDS011;3902;49.474;8.616;2024-02-26T06:56:41;1.30;;;1.20;;
7719;SDS011;3902;49.474;8.616;2024-02-26T06:59:06;1.20;;;1.10;;
7719;SDS011;3902;49.474;8.616;2024-02-26T07:01:32;1.20;;;1.10;;
7719;SDS011;3902;49.474;8.616;2024-02-26T07:03:57;1.10;;;1.00;;
7719;SDS011;3902;49.474;8.616;2024-02-26T07:06:23;1.10;;;1.00;;
7719;SDS011;3902;49.474;8.616;2024-02-26T07:08:48;1.10;;;1.00;;
7719;SDS011;3902;49.474;8.616;2024-02-26T07:11:14;1.20;;;1.10;;
7719;SDS011;3902;49.474;8.616;2024-02-26T07:13:39;1.33;;;1.23;;
7719;SDS011;3902;49.474;8.616;2024-02-26T07:16:05;1.10;;;1.00;;
7719;SDS011;3902;49.474;8.616;2024-02-26T07:18:31;1.10;;;1.00;;
7719;SDS011;3902;49.474;8.616;2024-02-26T07:20:56;1.30;;;1.20;;
7719;SDS011;3902;49.474;8.616;2024-02-26T07:23:22;1.27;;;1.17;;
7719;SDS011;3902;49.474;8.616;2024-02-26T07:25:47;1.83;;;1.37;;
7719;SDS011;3902;49.474;8.616;2024-02-26T07:28:14;1.20;;;1.00;;
7719;SDS011;3902;49.474;8.616;2024-02-26T07:30:40;1.23;;;1.03;;
7719;SDS011;3902;49.474;8.616;2024-02-26T07:33:05;1.53;;;1.20;;
7719;SDS011;3902;49.474;8.616;2024-02-26T07:35:32;1.10;;;1.00;;
7719;SDS011;3902;49.474;8.616;2024-02-26T07:37:58;1.20;;;1.00;;
7719;SDS011;3902;49.474;8.616;2024-02-26T07:40:24;1.07;;;1.00;;
7719;SDS011;3902;49.474;8.616;2024-02-26T07:42:49;1.13;;;1.03;;
7719;SDS011;3902;49.474;8.616;2024-02-26T07:45:14;1.53;;;1.30;;
7719;SDS011;3902;49.474;8.616;2024-02-26T07:47:40;0.90;;;0.90;;
7719;SDS011;3902;49.474;8.616;2024-02-26T07:50:07;1.20;;;1.10;;
7719;SDS011;3902;49.474;8.616;2024-02-26T07:52:33;1.43;;;1.10;;
7719;SDS011;3902;49.474;8.616;2024-02-26T07:54:59;1.10;;;1.00;;
7719;SDS011;3902;49.474;8.616;2024-02-26T07:57:24;1.17;;;1.07;;
7719;SDS011;3902;49.474;8.616;2024-02-26T07:59:50;1.30;;;1.20;;
7719;SDS011;3902;49.474;8.616;2024-02-26T08:02:16;1.43;;;1.33;;
7719;SDS011;3902;49.474;8.616;2024-02-26T08:04:41;1.57;;;1.03;;
7719;SDS011;3902;49.474;8.616;2024-02-26T08:07:07;1.20;;;1.10;;
7719;SDS011;3902;49.474;8.616;2024-02-26T08:09:33;1.20;;;1.10;;
7719;SDS011;3902;49.474;8.616;2024-02-26T08:11:58;1.10;;;1.00;;
7719;SDS011;3902;49.474;8.616;2024-02-26T08:14:24;1.30;;;1.20;;
7719;SDS011;3902;49.474;8.616;2024-02-26T08:16:49;1.00;;;0.90;;
7719;SDS011;3902;49.474;8.616;2024-02-26T08:19:15;1.57;;;0.97;;
7719;SDS011;3902;49.474;8.616;2024-02-26T08:21:41;1.70;;;1.23;;
7719;SDS011;3902;49.474;8.616;2024-02-26T08:24:06;1.30;;;1.00;;
7719;SDS011;3902;49.474;8.616;2024-02-26T08:26:32;1.30;;;1.20;;
7719;SDS011;3902;49.474;8.616;2024-02-26T08:28:58;1.10;;;1.00;;
7719;SDS011;3902;49.474;8.616;2024-02-26T08:31:23;1.20;;;1.10;;
7719;SDS011;3902;49.474;8.616;2024-02-26T08:33:49;0.90;;;0.90;;
7719;SDS011;3902;49.474;8.616;2024-02-26T08:36:14;1.00;;;0.90;;
7719;SDS011;3902;49.474;8.616;2024-02-26T08:38:40;1.23;;;1.00;;
7719;SDS011;3902;49.474;8.616;2024-02-26T08:41:07;1.10;;;1.00;;
7719;SDS011;3902;49.474;8.616;2024-02-26T08:43:32;1.10;;;1.00;;
7719;SDS011;3902;49.474;8.616;2024-02-26T08:45:58;0.90;;;0.90;;
7719;SDS011;3902;49.474;8.616;2024-02-26T08:48:23;1.20;;;1.10;;
7719;SDS011;3902;49.474;8.616;2024-02-26T08:50:49;1.10;;;1.00;;
7719;SDS011;3902;49.474;8.616;2024-02-26T08:53:15;1.43;;;1.10;;
7719;SDS011;3902;49.474;8.616;2024-02-26T08:55:40;1.10;;;1.00;;
7719;SDS011;3902;49.474;8.616;2024-02-26T08:58:05;1.20;;;0.90;;
7719;SDS011;3902;49.474;8.616;2024-02-26T09:00:31;1.07;;;0.97;;
7719;SDS011;3902;49.474;8.616;2024-02-26T09:02:56;0.97;;;0.97;;
7719;SDS011;3902;49.474;8.616;2024-02-26T09:05:22;1.10;;;1.00;;
7719;SDS011;3902;49.474;8.616;2024-02-26T09:07:47;1.77;;;1.20;;
7719;SDS011;3902;49.474;8.616;2024-02-26T09:10:13;0.93;;;0.93;;
7719;SDS011;3902;49.474;8.616;2024-02-26T09:12:39;1.47;;;1.10;;
7719;SDS011;3902;49.474;8.616;2024-02-26T09:15:05;1.20;;;1.10;;
7719;SDS011;3902;49.474;8.616;2024-02-26T09:17:32;1.27;;;1.10;;
7719;SDS011;3902;49.474;8.616;2024-02-26T09:19:57;1.27;;;1.10;;
7719;SDS011;3902;49.474;8.616;2024-02-26T09:22:23;1.00;;;0.90;;
7719;SDS011;3902;49.474;8.616;2024-02-26T09:24:48;1.50;;;1.20;;
7719;SDS011;3902;49.474;8.616;2024-02-26T09:27:16;2.13;;;1.30;;
7719;SDS011;3902;49.474;8.616;2024-02-26T09:29:42;1.30;;;1.00;;
7719;SDS011;3902;49.474;8.616;2024-02-26T09:32:07;1.23;;;1.00;;
7719;SDS011;3902;49.474;8.616;2024-02-26T09:34:33;1.63;;;1.10;;
7719;SDS011;3902;49.474;8.616;2024-02-26T09:36:58;2.00;;;1.50;;
7719;SDS011;3902;49.474;8.616;2024-02-26T09:39:25;2.23;;;1.30;;
7719;SDS011;3902;49.474;8.616;2024-02-26T09:41:51;1.77;;;1.23;;
7719;SDS011;3902;49.474;8.616;2024-02-26T09:44:20;1.40;;;1.30;;
7719;SDS011;3902;49.474;8.616;2024-02-26T09:46:47;1.63;;;1.20;;
7719;SDS011;3902;49.474;8.616;2024-02-26T09:49:15;1.60;;;1.50;;
7719;SDS011;3902;49.474;8.616;2024-02-26T09:51:40;1.40;;;1.10;;
7719;SDS011;3902;49.474;8.616;2024-02-26T09:54:07;1.30;;;1.20;;
7719;SDS011;3902;49.474;8.616;2024-02-26T09:56:35;1.23;;;1.03;;
7719;SDS011;3902;49.474;8.616;2024-02-26T09:59:03;1.47;;;1.17;;
7719;SDS011;3902;49.474;8.616;2024-02-26T10:01:35;1.40;;;1.30;;
7719;SDS011;3902;49.474;8.616;2024-02-26T10:04:01;1.23;;;1.13;;
7719;SDS011;3902;49.474;8.616;2024-02-26T10:06:28;1.33;;;1.20;;
7719;SDS011;3902;49.474;8.616;2024-02-26T10:08:54;1.20;;;1.10;;
7719;SDS011;3902;49.474;8.616;2024-02-26T10:11:21;1.10;;;1.00;;
7719;SDS011;3902;49.474;8.616;2024-02-26T10:13:48;1.30;;;1.20;;
7719;SDS011;3902;49.474;8.616;2024-02-26T10:16:14;1.10;;;1.00;;
7719;SDS011;3902;49.474;8.616;2024-02-26T10:21:12;1.30;;;1.20;;
7719;SDS011;3902;49.474;8.616;2024-02-26T10:23:39;1.10;;;1.00;;
7719;SDS011;3902;49.474;8.616;2024-02-26T10:26:04;1.10;;;1.00;;
7719;SDS011;3902;49.474;8.616;2024-02-26T10:28:30;1.30;;;1.13;;
7719;SDS011;3902;49.474;8.616;2024-02-26T10:30:55;1.03;;;0.97;;
7719;SDS011;3902;49.474;8.616;2024-02-26T10:33:21;1.10;;;1.00;;
7719;SDS011;3902;49.474;8.616;2024-02-26T10:35:47;1.10;;;0.97;;
7719;SDS011;3902;49.474;8.616;2024-02-26T10:38:13;1.27;;;1.17;;
7719;SDS011;3902;49.474;8.616;2024-02-26T10:40:42;1.10;;;1.00;;
7719;SDS011;3902;49.474;8.616;2024-02-26T10:43:07;1.20;;;1.10;;
7719;SDS011;3902;49.474;8.616;2024-02-26T10:45:33;1.20;;;1.10;;
7719;SDS011;3902;49.474;8.616;2024-02-26T10:48:00;3.80;;;1.10;;
7719;SDS011;3902;49.474;8.616;2024-02-26T10:50:25;1.10;;;1.00;;
7719;SDS011;3902;49.474;8.616;2024-02-26T10:52:51;1.00;;;0.90;;
7719;SDS011;3902;49.474;8.616;2024-02-26T10:55:17;1.27;;;1.17;;
7719;SDS011;3902;49.474;8.616;2024-02-26T10:57:44;1.47;;;1.20;;
7719;SDS011;3902;49.474;8.616;2024-02-26T11:00:10;1.10;;;1.00;;
7719;SDS011;3902;49.474;8.616;2024-02-26T11:02:40;1.10;;;1.00;;
7719;SDS011;3902;49.474;8.616;2024-02-26T11:05:07;0.93;;;0.90;;
7719;SDS011;3902;49.474;8.616;2024-02-26T11:07:36;1.20;;;1.10;;
7719;SDS011;3902;49.474;8.616;2024-02-26T11:10:03;1.20;;;1.10;;
7719;SDS011;3902;49.474;8.616;2024-02-26T11:12:30;0.80;;;0.80;;
7719;SDS011;3902;49.474;8.616;2024-02-26T11:14:57;1.10;;;1.00;;
7719;SDS011;3902;49.474;8.616;2024-02-26T11:17:27;1.00;;;0.90;;
7719;SDS011;3902;49.474;8.616;2024-02-26T11:19:56;1.00;;;0.90;;
7719;SDS011;3902;49.474;8.616;2024-02-26T11:22:23;1.20;;;1.10;;
7719;SDS011;3902;49.474;8.616;2024-02-26T11:24:51;1.10;;;1.00;;
7719;SDS011;3902;49.474;8.616;2024-02-26T11:27:17;1.10;;;1.00;;
7719;SDS011;3902;49.474;8.616;2024-02-26T11:29:47;1.00;;;0.90;;
7719;SDS011;3902;49.474;8.616;2024-02-26T11:32:14;1.00;;;0.90;;
7719;SDS011;3902;49.474;8.616;2024-02-26T11:34:40;1.30;;;1.20;;
7719;SDS011;3902;49.474;8.616;2024-02-26T11:37:10;1.10;;;1.00;;
7719;SDS011;3902;49.474;8.616;2024-02-26T11:39:39;0.90;;;0.90;;
7719;SDS011;3902;49.474;8.616;2024-02-26T11:42:06;1.23;;;1.13;;
7719;SDS011;3902;49.474;8.616;2024-02-26T11:44:33;1.03;;;0.90;;
7719;SDS011;3902;49.474;8.616;2024-02-26T11:46:58;1.10;;;1.00;;
7719;SDS011;3902;49.474;8.616;2024-02-26T11:49:34;1.10;;;1.00;;
7719;SDS011;3902;49.474;8.616;2024-02-26T11:52:00;1.07;;;0.97;;
7719;SDS011;3902;49.474;8.616;2024-02-26T11:54:38;1.00;;;0.90;;
7719;SDS011;3902;49.474;8.616;2024-02-26T12:02:46;1.10;;;0.97;;
7719;SDS011;3902;49.474;8.616;2024-02-26T12:05:19;1.40;;;1.20;;
7719;SDS011;3902;49.474;8.616;2024-02-26T12:07:55;1.17;;;1.07;;
7719;SDS011;3902;49.474;8.616;2024-02-26T12:10:26;0.90;;;0.90;;
7719;SDS011;3902;49.474;8.616;2024-02-26T12:15:23;1.10;;;1.00;;
7719;SDS011;3902;49.474;8.616;2024-02-26T12:17:48;1.00;;;0.90;;
7719;SDS011;3902;49.474;8.616;2024-02-26T12:20:15;1.07;;;1.00;;
7719;SDS011;3902;49.474;8.616;2024-02-26T12:22:44;1.10;;;1.00;;
7719;SDS011;3902;49.474;8.616;2024-02-26T12:25:12;0.90;;;0.90;;
7719;SDS011;3902;49.474;8.616;2024-02-26T12:27:38;1.17;;;0.90;;
7719;SDS011;3902;49.474;8.616;2024-02-26T12:30:04;0.80;;;0.80;;
7719;SDS011;3902;49.474;8.616;2024-02-26T12:32:31;0.90;;;0.90;;
7719;SDS011;3902;49.474;8.616;2024-02-26T12:34:57;1.20;;;1.10;;
7719;SDS011;3902;49.474;8.616;2024-02-26T12:37:23;1.00;;;0.90;;
7719;SDS011;3902;49.474;8.616;2024-02-26T12:39:49;0.87;;;0.87;;
7719;SDS011;3902;49.474;8.616;2024-02-26T12:42:15;1.30;;;1.20;;
7719;SDS011;3902;49.474;8.616;2024-02-26T12:44:40;1.00;;;0.90;;
7719;SDS011;3902;49.474;8.616;2024-02-26T12:47:06;0.97;;;0.97;;
7719;SDS011;3902;49.474;8.616;2024-02-26T12:49:31;1.00;;;0.90;;
7719;SDS011;3902;49.474;8.616;2024-02-26T12:51:57;0.93;;;0.93;;
7719;SDS011;3902;49.474;8.616;2024-02-26T12:54:32;1.20;;;1.10;;
7719;SDS011;3902;49.474;8.616;2024-02-26T12:56:59;0.80;;;0.80;;
7719;SDS011;3902;49.474;8.616;2024-02-26T12:59:26;1.67;;;0.80;;
7719;SDS011;3902;49.474;8.616;2024-02-26T13:01:52;1.03;;;0.93;;
7719;SDS011;3902;49.474;8.616;2024-02-26T13:04:17;1.10;;;1.00;;
7719;SDS011;3902;49.474;8.616;2024-02-26T13:06:43;1.07;;;0.97;;
7719;SDS011;3902;49.474;8.616;2024-02-26T13:09:12;1.10;;;1.00;;
7719;SDS011;3902;49.474;8.616;2024-02-26T13:11:41;0.97;;;0.87;;
7719;SDS011;3902;49.474;8.616;2024-02-26T13:14:07;1.17;;;1.07;;
7719;SDS011;3902;49.474;8.616;2024-02-26T13:16:32;1.10;;;1.00;;
7719;SDS011;3902;49.474;8.616;2024-02-26T13:19:08;1.23;;;1.13;;
7719;SDS011;3902;49.474;8.616;2024-02-26T13:21:36;1.03;;;0.93;;
7719;SDS011;3902;49.474;8.616;2024-02-26T13:24:02;1.57;;;1.10;;
7719;SDS011;3902;49.474;8.616;2024-02-26T13:26:27;1.00;;;0.90;;
7719;SDS011;3902;49.474;8.616;2024-02-26T13:29:02;1.10;;;1.00;;
7719;SDS011;3902;49.474;8.616;2024-02-26T13:31:30;1.47;;;1.20;;
7719;SDS011;3902;49.474;8.616;2024-02-26T13:33:56;1.00;;;0.90;;
7719;SDS011;3902;49.474;8.616;2024-02-26T13:36:22;1.13;;;1.00;;
7719;SDS011;3902;49.474;8.616;2024-02-26T13:38:53;1.10;;;1.00;;
7719;SDS011;3902;49.474;8.616;2024-02-26T13:41:19;1.00;;;0.90;;
7719;SDS011;3902;49.474;8.616;2024-02-26T13:43:46;1.10;;;1.00;;
7719;SDS011;3902;49.474;8.616;2024-02-26T13:46:12;1.10;;;1.00;;
7719;SDS011;3902;49.474;8.616;2024-02-26T13:48:39;1.10;;;0.90;;
7719;SDS011;3902;49.474;8.616;2024-02-26T13:51:04;0.90;;;0.80;;
7719;SDS011;3902;49.474;8.616;2024-02-26T13:53:30;1.10;;;1.00;;
7719;SDS011;3902;49.474;8.616;2024-02-26T13:55:55;1.10;;;1.00;;
7719;SDS011;3902;49.474;8.616;2024-02-26T13:58:23;1.10;;;1.00;;
7719;SDS011;3902;49.474;8.616;2024-02-26T14:00:50;1.10;;;1.00;;
7719;SDS011;3902;49.474;8.616;2024-02-26T14:03:15;1.10;;;1.00;;
7719;SDS011;3902;49.474;8.616;2024-02-26T14:05:41;1.00;;;0.90;;
7719;SDS011;3902;49.474;8.616;2024-02-26T14:08:07;1.10;;;1.00;;
7719;SDS011;3902;49.474;8.616;2024-02-26T14:10:32;1.03;;;0.93;;
7719;SDS011;3902;49.474;8.616;2024-02-26T14:12:58;1.10;;;1.00;;
7719;SDS011;3902;49.474;8.616;2024-02-26T14:15:24;1.20;;;1.10;;
7719;SDS011;3902;49.474;8.616;2024-02-26T14:17:51;1.10;;;1.00;;
7719;SDS011;3902;49.474;8.616;2024-02-26T14:20:21;1.27;;;1.13;;
7719;SDS011;3902;49.474;8.616;2024-02-26T14:22:48;1.10;;;1.00;;
7719;SDS011;3902;49.474;8.616;2024-02-26T14:25:14;1.27;;;1.10;;
7719;SDS011;3902;49.474;8.616;2024-02-26T14:27:39;1.00;;;0.90;;
7719;SDS011;3902;49.474;8.616;2024-02-26T14:30:05;1.10;;;1.00;;
7719;SDS011;3902;49.474;8.616;2024-02-26T14:32:31;0.93;;;0.90;;
7719;SDS011;3902;49.474;8.616;2024-02-26T14:35:00;0.93;;;0.87;;
7719;SDS011;3902;49.474;8.616;2024-02-26T14:37:26;1.30;;;0.90;;
7719;SDS011;3902;49.474;8.616;2024-02-26T14:39:51;1.03;;;0.80;;
7719;SDS011;3902;49.474;8.616;2024-02-26T14:42:18;1.20;;;1.10;;
7719;SDS011;3902;49.474;8.616;2024-02-26T14:44:43;1.10;;;1.00;;
7719;SDS011;3902;49.474;8.616;2024-02-26T14:47:09;1.00;;;0.90;;
7719;SDS011;3902;49.474;8.616;2024-02-26T14:49:34;1.10;;;0.90;;
7719;SDS011;3902;49.474;8.616;2024-02-26T14:52:00;0.90;;;0.83;;
7719;SDS011;3902;49.474;8.616;2024-02-26T14:54:28;1.17;;;1.07;;
7719;SDS011;3902;49.474;8.616;2024-02-26T14:56:57;1.23;;;1.10;;
7719;SDS011;3902;49.474;8.616;2024-02-26T14:59:23;1.10;;;0.90;;
7719;SDS011;3902;49.474;8.616;2024-02-26T15:01:48;1.03;;;0.93;;
7719;SDS011;3902;49.474;8.616;2024-02-26T15:04:14;1.00;;;0.90;;
7719;SDS011;3902;49.474;8.616;2024-02-26T15:06:40;1.10;;;1.00;;
7719;SDS011;3902;49.474;8.616;2024-02-26T15:09:06;1.10;;;1.00;;
7719;SDS011;3902;49.474;8.616;2024-02-26T15:11:32;1.00;;;0.90;;
7719;SDS011;3902;49.474;8.616;2024-02-26T15:13:57;1.00;;;0.90;;
7719;SDS011;3902;49.474;8.616;2024-02-26T15:16:23;0.80;;;0.80;;
7719;SDS011;3902;49.474;8.616;2024-02-26T15:18:48;0.90;;;0.90;;